Time;durP1;ratioP1;P1;durP2;ratioP2;P2;SDS_P1;SDS_P2;PMS_P1;PMS_P2;Temp;Humidity;BMP_temperature;BMP_pressure;BME280_temperature;BME280_humidity;BME280_pressure;Samples;Min_cycle;Max_cycle;Signal;HPM_P1;HPM_P2
2021/12/18 00:01:15;;;;;;;0.40;0.40;;;4.00;99.90;;;;;;5056207;28;20508;-83
2021/12/18 00:03:43;;;;;;;0.30;0.30;;;4.10;99.90;;;;;;5055832;28;20454;-83
2021/12/18 00:06:14;;;;;;;0.40;0.40;;;3.90;99.90;;;;;;5056888;28;20511;-83
2021/12/18 00:08:41;;;;;;;1.47;0.83;;;4.00;99.90;;;;;;5056936;28;20452;-83
2021/12/18 00:11:09;;;;;;;0.50;0.50;;;4.10;99.90;;;;;;5055910;28;20466;-83
2021/12/18 00:13:37;;;;;;;0.47;0.47;;;4.00;99.90;;;;;;5056096;28;20540;-83
2021/12/18 00:16:05;;;;;;;0.30;0.30;;;4.00;99.90;;;;;;5056688;28;20450;-82
2021/12/18 00:18:32;;;;;;;0.67;0.67;;;4.00;99.90;;;;;;5071172;28;20440;-82
2021/12/18 00:21:00;;;;;;;0.33;0.33;;;4.00;99.90;;;;;;5063598;28;20473;-82
2021/12/18 00:23:28;;;;;;;0.97;0.97;;;4.10;99.90;;;;;;5057209;28;20455;-82
2021/12/18 00:25:55;;;;;;;0.70;0.47;;;4.00;99.90;;;;;;5055498;28;20857;-83
2021/12/18 00:28:22;;;;;;;0.50;0.50;;;4.00;99.90;;;;;;5055580;28;20438;-82
2021/12/18 00:30:49;;;;;;;0.50;0.50;;;4.00;99.90;;;;;;5058273;28;20462;-82
2021/12/18 00:33:16;;;;;;;0.60;0.60;;;4.00;99.90;;;;;;5056260;28;20952;-83
2021/12/18 00:35:44;;;;;;;0.30;0.30;;;4.00;99.90;;;;;;5055170;28;20569;-83
2021/12/18 00:38:12;;;;;;;1.80;0.70;;;4.00;99.90;;;;;;5055270;28;20469;-82
2021/12/18 00:40:46;;;;;;;0.30;0.30;;;4.00;99.90;;;;;;5055174;28;20458;-83
2021/12/18 00:43:24;;;;;;;0.53;0.53;;;4.00;99.90;;;;;;5055455;28;20857;-82
2021/12/18 00:45:51;;;;;;;0.30;0.30;;;3.90;99.90;;;;;;5055244;28;20845;-83
2021/12/18 00:48:18;;;;;;;0.37;0.27;;;3.90;99.90;;;;;;5055455;28;20485;-82
2021/12/18 00:50:45;;;;;;;0.30;0.30;;;4.00;99.90;;;;;;5055256;28;20533;-83
2021/12/18 00:53:14;;;;;;;1.27;0.60;;;4.00;99.90;;;;;;5055057;28;20461;-83
2021/12/18 00:55:41;;;;;;;0.30;0.30;;;3.90;99.90;;;;;;5055299;28;20483;-82
2021/12/18 00:58:08;;;;;;;0.97;0.87;;;3.90;99.90;;;;;;5055003;28;20805;-83
2021/12/18 01:00:38;;;;;;;1.10;0.50;;;3.80;99.90;;;;;;5055025;28;20434;-82
2021/12/18 01:03:13;;;;;;;0.30;0.30;;;3.80;99.90;;;;;;5055148;28;20945;-82
2021/12/18 01:05:40;;;;;;;0.30;0.30;;;3.80;99.90;;;;;;5054928;28;20858;-83
2021/12/18 01:08:07;;;;;;;0.30;0.20;;;3.70;99.90;;;;;;5054878;28;20808;-84
2021/12/18 01:10:50;;;;;;;1.17;1.17;;;3.70;99.90;;;;;;5054598;28;20437;-83
2021/12/18 01:13:22;;;;;;;0.30;0.30;;;3.60;99.90;;;;;;5055748;28;20454;-82
2021/12/18 01:15:52;;;;;;;0.70;0.70;;;3.50;99.90;;;;;;5054871;28;20434;-82
2021/12/18 01:23:58;;;;;;;0.30;0.30;;;3.60;99.90;;;;;;5054603;28;20410;-83
2021/12/18 01:26:26;;;;;;;0.30;0.30;;;3.60;99.90;;;;;;5054312;28;20477;-82
2021/12/18 01:28:53;;;;;;;0.60;0.60;;;3.50;99.90;;;;;;5054469;28;20453;-83
2021/12/18 01:31:19;;;;;;;0.30;0.30;;;3.50;99.90;;;;;;5054511;28;20584;-83
2021/12/18 01:33:46;;;;;;;0.87;0.53;;;3.40;99.90;;;;;;5054229;28;20438;-83
2021/12/18 01:36:13;;;;;;;0.40;0.40;;;3.30;99.90;;;;;;5053991;28;20512;-82
2021/12/18 01:38:40;;;;;;;0.63;0.63;;;3.30;99.90;;;;;;5054378;28;20450;-82
2021/12/18 01:41:07;;;;;;;0.30;0.30;;;3.30;99.90;;;;;;5054313;28;20466;-82
2021/12/18 01:46:40;;;;;;;0.40;0.40;;;3.40;99.90;;;;;;5044767;28;20532;-83
2021/12/18 01:52:03;;;;;;;0.50;0.50;;;3.40;99.90;;;;;;5053862;28;20508;-83
2021/12/18 01:54:30;;;;;;;0.30;0.30;;;3.40;99.90;;;;;;5054452;28;20434;-83
2021/12/18 01:56:59;;;;;;;0.30;0.30;;;3.30;99.90;;;;;;5053885;28;20434;-83
2021/12/18 01:59:38;;;;;;;0.30;0.30;;;3.30;99.90;;;;;;5054303;28;20448;-83
2021/12/18 02:02:06;;;;;;;0.53;0.53;;;3.30;99.90;;;;;;5053894;28;20493;-83
2021/12/18 02:04:34;;;;;;;1.33;1.30;;;3.30;99.90;;;;;;5053837;28;20569;-83
2021/12/18 02:07:01;;;;;;;0.30;0.30;;;3.30;99.90;;;;;;5053891;28;20456;-83
2021/12/18 02:09:42;;;;;;;0.30;0.30;;;3.30;99.90;;;;;;5053593;28;20485;-82
2021/12/18 02:12:10;;;;;;;0.30;0.27;;;3.30;99.90;;;;;;5053808;28;20454;-83
2021/12/18 02:20:23;;;;;;;1.47;1.27;;;3.20;99.90;;;;;;5053766;28;20409;-83
2021/12/18 02:22:50;;;;;;;0.40;0.40;;;3.20;99.90;;;;;;5054033;28;20956;-82
2021/12/18 02:25:17;;;;;;;0.40;0.30;;;3.20;99.90;;;;;;5054885;28;20513;-82
2021/12/18 02:27:44;;;;;;;0.30;0.30;;;3.10;99.90;;;;;;5053655;28;20528;-82
2021/12/18 02:30:11;;;;;;;0.30;0.30;;;3.20;99.90;;;;;;5053654;28;20456;-83
2021/12/18 02:32:38;;;;;;;0.30;0.30;;;3.10;99.90;;;;;;5053453;28;20523;-83
2021/12/18 02:35:06;;;;;;;1.67;0.50;;;3.10;99.90;;;;;;5053042;28;20487;-82
2021/12/18 02:37:39;;;;;;;0.30;0.30;;;3.10;99.90;;;;;;5053148;28;20481;-83
2021/12/18 02:42:53;;;;;;;0.30;0.30;;;3.20;99.90;;;;;;5053259;28;20410;-83
2021/12/18 02:45:21;;;;;;;0.43;0.43;;;3.20;99.90;;;;;;5053088;28;20531;-83
2021/12/18 02:47:48;;;;;;;0.60;0.57;;;3.20;99.90;;;;;;5053453;28;20456;-83
2021/12/18 02:50:15;;;;;;;0.50;0.50;;;3.20;99.90;;;;;;5053428;28;20442;-83
2021/12/18 02:52:43;;;;;;;0.77;0.40;;;3.20;99.90;;;;;;5053632;28;20469;-83
2021/12/18 02:55:11;;;;;;;1.20;0.90;;;3.20;99.90;;;;;;5053090;28;20544;-83
2021/12/18 02:57:38;;;;;;;0.30;0.30;;;3.10;99.90;;;;;;5053164;28;20501;-83
2021/12/18 03:00:06;;;;;;;0.30;0.30;;;3.20;99.90;;;;;;5053249;28;20440;-83
2021/12/18 03:02:38;;;;;;;0.40;0.40;;;3.20;99.90;;;;;;5053234;28;20552;-83
2021/12/18 03:05:08;;;;;;;0.90;0.73;;;3.20;99.90;;;;;;5052850;28;20469;-82
2021/12/18 03:07:35;;;;;;;0.37;0.37;;;3.10;99.90;;;;;;5053100;28;20517;-82
2021/12/18 03:23:50;;;;;;;0.70;0.70;;;3.00;99.90;;;;;;5048715;28;20425;-83
2021/12/18 03:26:18;;;;;;;0.40;0.40;;;2.90;99.90;;;;;;5054076;28;20567;-83
2021/12/18 03:28:45;;;;;;;0.40;0.40;;;3.00;99.90;;;;;;5053556;28;20804;-83
2021/12/18 03:31:12;;;;;;;1.07;0.57;;;3.10;99.90;;;;;;5052861;28;20484;-83
2021/12/18 03:33:38;;;;;;;0.30;0.30;;;3.00;99.90;;;;;;5052720;28;20436;-83
2021/12/18 03:36:07;;;;;;;0.93;0.93;;;3.00;99.90;;;;;;5056252;28;20483;-83
2021/12/18 03:38:35;;;;;;;0.57;0.43;;;3.00;99.90;;;;;;5056922;28;20446;-83
2021/12/18 03:41:01;;;;;;;0.30;0.27;;;3.00;99.90;;;;;;5056710;28;20465;-83
2021/12/18 03:43:30;;;;;;;5.10;0.90;;;3.00;99.90;;;;;;5056675;28;20461;-83
2021/12/18 03:45:56;;;;;;;0.30;0.30;;;3.00;99.90;;;;;;5056625;28;20486;-83
2021/12/18 03:48:23;;;;;;;0.40;0.30;;;3.10;99.90;;;;;;5056604;28;20433;-83
2021/12/18 03:50:52;;;;;;;0.30;0.30;;;3.00;99.90;;;;;;5056508;28;20474;-83
2021/12/18 03:53:19;;;;;;;0.30;0.30;;;2.90;99.90;;;;;;5057240;28;20810;-83
2021/12/18 03:55:46;;;;;;;0.30;0.30;;;2.80;99.90;;;;;;5056393;28;20944;-83
2021/12/18 03:58:13;;;;;;;2.63;0.93;;;2.60;99.90;;;;;;5056347;28;20445;-83
2021/12/18 04:00:41;;;;;;;0.30;0.30;;;2.60;99.90;;;;;;5056338;28;20952;-83
2021/12/18 04:03:08;;;;;;;0.57;0.57;;;2.40;99.90;;;;;;5056269;28;20453;-83
2021/12/18 04:05:35;;;;;;;2.20;1.37;;;2.30;99.90;;;;;;5056198;28;20485;-83
2021/12/18 04:08:09;;;;;;;0.30;0.27;;;2.40;99.90;;;;;;5056311;28;20445;-83
2021/12/18 04:10:38;;;;;;;0.30;0.30;;;2.40;99.90;;;;;;5056167;28;20488;-83
2021/12/18 04:13:06;;;;;;;0.40;0.40;;;2.40;99.90;;;;;;5056169;28;20473;-83
2021/12/18 04:15:33;;;;;;;0.77;0.77;;;2.40;99.90;;;;;;5056035;28;20461;-83
2021/12/18 04:18:01;;;;;;;0.60;0.60;;;2.30;99.90;;;;;;5056029;28;20454;-83
2021/12/18 04:20:28;;;;;;;0.43;0.30;;;2.30;99.90;;;;;;5055889;28;20469;-83
2021/12/18 04:22:55;;;;;;;0.90;0.90;;;2.40;99.90;;;;;;5054999;28;20494;-83
2021/12/18 04:25:22;;;;;;;0.30;0.30;;;2.40;99.90;;;;;;5055660;28;20484;-83
2021/12/18 04:27:49;;;;;;;0.30;0.30;;;2.40;99.90;;;;;;5055816;28;20446;-84
2021/12/18 04:30:16;;;;;;;0.50;0.50;;;2.40;99.90;;;;;;5055706;28;20441;-84
2021/12/18 04:32:42;;;;;;;0.50;0.50;;;2.50;99.90;;;;;;5057446;28;20473;-84
2021/12/18 04:35:11;;;;;;;1.70;0.70;;;2.40;99.90;;;;;;5055657;28;20489;-83
2021/12/18 04:37:38;;;;;;;0.63;0.60;;;2.50;99.90;;;;;;5055629;28;20454;-83
2021/12/18 04:40:06;;;;;;;2.00;0.40;;;2.50;99.90;;;;;;5055578;28;20438;-83
2021/12/18 04:42:33;;;;;;;1.33;0.43;;;2.40;99.90;;;;;;5055175;28;20981;-83
2021/12/18 04:44:59;;;;;;;0.30;0.30;;;2.30;99.90;;;;;;5055004;28;20438;-83
2021/12/18 04:47:26;;;;;;;0.50;0.50;;;2.30;99.90;;;;;;5055484;28;20434;-83
2021/12/18 04:49:53;;;;;;;0.30;0.30;;;2.20;99.90;;;;;;5055089;28;20441;-83
2021/12/18 04:52:21;;;;;;;0.40;0.40;;;2.10;99.90;;;;;;5055378;28;20461;-83
2021/12/18 04:54:47;;;;;;;0.77;0.77;;;2.20;99.90;;;;;;5055229;28;20866;-83
2021/12/18 04:57:14;;;;;;;0.30;0.20;;;2.10;99.90;;;;;;5055259;28;20453;-83
2021/12/18 04:59:44;;;;;;;0.60;0.60;;;2.20;99.90;;;;;;5055183;28;20449;-83
2021/12/18 05:02:13;;;;;;;0.40;0.40;;;2.10;99.90;;;;;;5055097;28;20480;-82
2021/12/18 05:04:40;;;;;;;0.40;0.40;;;2.10;99.90;;;;;;5055094;28;20448;-83
2021/12/18 05:07:06;;;;;;;0.30;0.30;;;2.00;99.90;;;;;;5054725;28;20480;-83
2021/12/18 05:09:34;;;;;;;0.93;0.93;;;2.10;99.90;;;;;;5055086;28;20430;-83
2021/12/18 05:12:01;;;;;;;1.50;0.57;;;2.10;99.90;;;;;;5054913;28;20470;-83
2021/12/18 05:14:28;;;;;;;0.60;0.60;;;2.10;99.90;;;;;;5054940;28;20449;-83
2021/12/18 05:16:55;;;;;;;0.43;0.43;;;2.00;99.90;;;;;;5056644;28;20468;-83
2021/12/18 05:19:21;;;;;;;0.30;0.30;;;1.90;99.90;;;;;;5055340;28;20450;-84
2021/12/18 05:21:48;;;;;;;0.30;0.30;;;2.00;99.90;;;;;;5054503;28;20461;-83
2021/12/18 05:24:15;;;;;;;0.30;0.30;;;2.00;99.90;;;;;;5054711;28;20457;-83
2021/12/18 05:26:43;;;;;;;0.40;0.40;;;2.00;99.90;;;;;;5054599;28;20492;-83
2021/12/18 05:29:10;;;;;;;0.30;0.30;;;2.00;99.90;;;;;;5054695;28;20443;-83
2021/12/18 05:31:37;;;;;;;0.30;0.30;;;2.00;99.90;;;;;;5054596;28;20492;-83
2021/12/18 05:34:05;;;;;;;0.70;0.70;;;1.90;99.90;;;;;;5054307;28;20963;-83
2021/12/18 05:36:40;;;;;;;0.30;0.30;;;1.90;99.90;;;;;;5054481;28;20827;-85
2021/12/18 05:39:10;;;;;;;0.60;0.50;;;1.90;99.90;;;;;;5054576;28;20434;-85
2021/12/18 05:41:37;;;;;;;0.30;0.30;;;2.00;99.90;;;;;;5054395;28;20466;-85
2021/12/18 05:44:07;;;;;;;0.30;0.30;;;2.10;99.90;;;;;;5054696;28;20452;-85
2021/12/18 05:46:34;;;;;;;0.30;0.30;;;2.00;99.90;;;;;;5054428;28;20481;-85
2021/12/18 05:49:01;;;;;;;0.30;0.20;;;2.00;99.90;;;;;;5054443;28;20439;-85
2021/12/18 05:51:28;;;;;;;0.60;0.60;;;2.00;99.90;;;;;;5054151;28;20878;-85
2021/12/18 05:53:55;;;;;;;0.30;0.20;;;2.00;99.90;;;;;;5054137;28;20446;-84
2021/12/18 05:56:22;;;;;;;0.30;0.27;;;1.90;99.90;;;;;;5054111;28;20448;-84
2021/12/18 05:58:48;;;;;;;0.30;0.30;;;2.00;99.90;;;;;;5054118;28;20449;-85
2021/12/18 06:01:19;;;;;;;0.30;0.30;;;1.90;99.90;;;;;;5054433;28;20477;-85
2021/12/18 06:03:46;;;;;;;0.33;0.33;;;1.90;99.90;;;;;;5054504;28;20445;-84
2021/12/18 06:06:13;;;;;;;0.40;0.40;;;1.80;99.90;;;;;;5054055;28;20524;-85
2021/12/18 06:08:42;;;;;;;0.30;0.30;;;1.80;99.90;;;;;;5054926;28;20458;-85
2021/12/18 06:11:13;;;;;;;0.30;0.20;;;1.80;99.90;;;;;;5054075;28;20458;-85
2021/12/18 06:13:39;;;;;;;0.30;0.30;;;1.80;99.90;;;;;;5054114;28;20438;-85
2021/12/18 06:16:07;;;;;;;0.30;0.20;;;1.80;99.90;;;;;;5054237;28;20453;-85
2021/12/18 06:18:36;;;;;;;0.73;0.73;;;1.90;99.90;;;;;;5053904;28;20440;-85
2021/12/18 06:21:04;;;;;;;0.50;0.50;;;1.90;99.90;;;;;;5053795;28;20466;-85
2021/12/18 06:23:30;;;;;;;0.60;0.60;;;1.90;99.90;;;;;;5054061;28;20858;-85
2021/12/18 06:25:58;;;;;;;0.40;0.40;;;1.80;99.90;;;;;;5053775;28;20478;-85
2021/12/18 06:28:24;;;;;;;0.30;0.30;;;1.80;99.90;;;;;;5054439;28;20777;-85
2021/12/18 06:30:51;;;;;;;0.30;0.27;;;1.70;99.90;;;;;;5053684;28;20992;-85
2021/12/18 06:33:18;;;;;;;0.30;0.30;;;1.70;99.90;;;;;;5053984;28;20441;-85
2021/12/18 06:35:47;;;;;;;0.30;0.20;;;1.80;99.90;;;;;;5053525;28;20490;-84
2021/12/18 06:38:13;;;;;;;0.30;0.30;;;1.80;99.90;;;;;;5053567;28;20438;-85
2021/12/18 06:40:40;;;;;;;13.67;1.03;;;1.80;99.90;;;;;;5053899;28;20433;-86
2021/12/18 06:43:07;;;;;;;0.60;0.43;;;1.90;99.90;;;;;;5054170;28;20944;-82
2021/12/18 06:45:34;;;;;;;0.30;0.30;;;1.80;99.90;;;;;;5054838;28;20449;-80
2021/12/18 06:48:00;;;;;;;11.27;1.23;;;1.80;99.90;;;;;;5053222;28;20484;-78
2021/12/18 06:50:28;;;;;;;0.40;0.40;;;1.80;99.90;;;;;;5053223;28;20426;-77
2021/12/18 06:52:56;;;;;;;0.30;0.30;;;1.90;99.90;;;;;;5053365;28;20834;-85
2021/12/18 06:55:23;;;;;;;4.03;0.93;;;1.80;99.90;;;;;;5053846;28;20458;-86
2021/12/18 06:57:50;;;;;;;0.90;0.90;;;1.80;99.90;;;;;;5053780;28;20446;-86
2021/12/18 07:00:19;;;;;;;0.30;0.30;;;1.80;99.90;;;;;;5053747;28;20492;-85
2021/12/18 07:02:46;;;;;;;0.30;0.30;;;1.80;99.90;;;;;;5053474;28;20461;-85
2021/12/18 07:05:13;;;;;;;0.73;0.73;;;1.80;99.90;;;;;;5054617;28;20448;-84
2021/12/18 07:07:40;;;;;;;0.30;0.20;;;1.70;99.90;;;;;;5054556;28;20488;-85
2021/12/18 07:10:13;;;;;;;0.30;0.30;;;1.70;99.90;;;;;;5057183;28;20441;-80
2021/12/18 07:12:39;;;;;;;0.43;0.43;;;1.70;99.90;;;;;;5056977;28;20879;-79
2021/12/18 07:15:08;;;;;;;0.30;0.30;;;1.70;99.90;;;;;;5057098;28;20453;-79
2021/12/18 07:17:35;;;;;;;0.40;0.40;;;1.70;99.90;;;;;;5057107;28;20441;-84
2021/12/18 07:20:03;;;;;;;0.30;0.30;;;1.50;99.90;;;;;;5057544;28;20805;-78
2021/12/18 07:22:30;;;;;;;0.30;0.30;;;1.50;99.90;;;;;;5056916;28;20476;-78
2021/12/18 07:24:56;;;;;;;0.30;0.30;;;1.60;99.90;;;;;;5056932;28;20480;-78
2021/12/18 07:27:24;;;;;;;0.30;0.30;;;1.60;99.90;;;;;;5057221;28;20481;-85
2021/12/18 07:29:51;;;;;;;0.50;0.50;;;1.70;99.90;;;;;;5057513;28;20445;-86
2021/12/18 07:32:18;;;;;;;0.47;0.47;;;1.70;99.90;;;;;;5057329;28;20440;-85
2021/12/18 07:34:45;;;;;;;0.97;0.97;;;1.70;99.90;;;;;;5057484;28;20488;-85
2021/12/18 07:37:11;;;;;;;0.30;0.20;;;1.70;99.90;;;;;;5057633;28;20438;-86
2021/12/18 07:39:38;;;;;;;1.07;0.50;;;1.60;99.90;;;;;;5057585;28;20854;-85
2021/12/18 07:42:05;;;;;;;0.47;0.47;;;1.60;99.90;;;;;;5057975;28;20531;-85
2021/12/18 07:44:33;;;;;;;0.30;0.20;;;1.60;99.90;;;;;;5057744;28;20802;-85
2021/12/18 07:47:00;;;;;;;0.40;0.40;;;1.70;99.90;;;;;;5057139;28;20481;-85
2021/12/18 07:49:27;;;;;;;0.30;0.30;;;1.70;99.90;;;;;;5057071;28;20552;-82
2021/12/18 07:51:59;;;;;;;0.30;0.30;;;1.70;99.90;;;;;;5056905;28;20474;-85
2021/12/18 07:54:28;;;;;;;0.43;0.40;;;1.60;99.90;;;;;;5056962;28;20436;-84
2021/12/18 07:56:55;;;;;;;0.60;0.60;;;1.60;99.90;;;;;;5056527;28;20448;-84
2021/12/18 07:59:22;;;;;;;0.60;0.60;;;1.60;99.90;;;;;;5056840;28;20807;-85
2021/12/18 08:01:50;;;;;;;0.30;0.20;;;1.60;99.90;;;;;;5056683;28;20508;-84
2021/12/18 08:04:17;;;;;;;0.30;0.30;;;1.60;99.90;;;;;;5056681;28;20843;-84
2021/12/18 08:06:44;;;;;;;0.30;0.30;;;1.60;99.90;;;;;;5056489;28;20481;-85
2021/12/18 08:09:11;;;;;;;0.30;0.30;;;1.70;99.90;;;;;;5056559;28;20434;-84
2021/12/18 08:11:38;;;;;;;2.10;1.27;;;1.80;99.90;;;;;;5056505;28;20465;-85
2021/12/18 08:14:05;;;;;;;0.30;0.30;;;1.80;99.90;;;;;;5056437;28;20918;-84
2021/12/18 08:16:32;;;;;;;0.30;0.30;;;1.70;99.90;;;;;;5056281;28;20414;-84
2021/12/18 08:19:00;;;;;;;1.03;1.03;;;1.80;99.90;;;;;;5056426;28;20437;-85
2021/12/18 08:21:27;;;;;;;0.30;0.30;;;1.90;99.90;;;;;;5055029;28;20474;-79
2021/12/18 08:23:53;;;;;;;0.30;0.20;;;1.90;99.90;;;;;;5056309;28;20446;-79
2021/12/18 08:26:20;;;;;;;0.50;0.40;;;1.90;99.90;;;;;;5055419;28;20921;-79
2021/12/18 08:28:47;;;;;;;0.40;0.40;;;1.80;99.90;;;;;;5055519;28;20949;-79
2021/12/18 08:31:13;;;;;;;0.30;0.30;;;1.80;99.90;;;;;;5055485;28;20453;-78
2021/12/18 08:33:40;;;;;;;0.40;0.30;;;1.80;99.90;;;;;;5055283;28;20438;-78
2021/12/18 08:36:08;;;;;;;0.30;0.20;;;1.80;99.90;;;;;;5055210;28;20478;-78
2021/12/18 08:38:35;;;;;;;0.50;0.50;;;1.90;99.90;;;;;;5055510;28;20851;-78
2021/12/18 08:41:02;;;;;;;0.30;0.20;;;1.90;99.90;;;;;;5055351;28;20470;-78
2021/12/18 08:43:29;;;;;;;1.37;0.67;;;1.90;99.90;;;;;;5055155;28;20434;-78
2021/12/18 08:45:56;;;;;;;0.30;0.30;;;2.00;99.90;;;;;;5055398;28;20446;-78
2021/12/18 08:48:22;;;;;;;0.87;0.63;;;2.10;99.90;;;;;;5055255;28;20818;-79
2021/12/18 08:50:49;;;;;;;1.77;1.77;;;2.10;99.90;;;;;;5054819;28;20508;-79
2021/12/18 08:53:17;;;;;;;0.30;0.20;;;2.20;99.90;;;;;;5055235;28;20450;-79
2021/12/18 08:55:44;;;;;;;0.30;0.30;;;2.20;99.90;;;;;;5055319;28;20457;-78
2021/12/18 08:58:11;;;;;;;1.00;1.00;;;2.20;99.90;;;;;;5055123;28;20813;-79
2021/12/18 09:00:38;;;;;;;1.93;0.77;;;2.20;99.90;;;;;;5054989;28;20453;-77
2021/12/18 09:03:05;;;;;;;0.30;0.30;;;2.30;99.90;;;;;;5055031;28;20450;-78
2021/12/18 09:05:32;;;;;;;1.53;1.43;;;2.50;99.90;;;;;;5055020;28;20454;-78
2021/12/18 09:07:59;;;;;;;0.30;0.30;;;2.40;99.90;;;;;;5054530;28;20488;-79
2021/12/18 09:10:27;;;;;;;0.77;0.77;;;2.40;99.90;;;;;;5054999;28;20446;-83
2021/12/18 09:12:54;;;;;;;0.30;0.30;;;2.50;99.90;;;;;;5054999;28;20445;-83
2021/12/18 09:15:22;;;;;;;0.30;0.30;;;2.50;99.90;;;;;;5054930;28;20452;-78
2021/12/18 09:17:49;;;;;;;0.30;0.30;;;2.50;99.90;;;;;;5054818;28;20472;-78
2021/12/18 09:20:16;;;;;;;0.40;0.40;;;2.50;99.90;;;;;;5054781;28;20454;-78
2021/12/18 09:22:43;;;;;;;0.30;0.30;;;2.40;99.90;;;;;;5054678;28;20462;-78
2021/12/18 09:25:11;;;;;;;0.30;0.30;;;2.40;99.90;;;;;;5054684;28;20461;-78
2021/12/18 09:27:39;;;;;;;0.30;0.20;;;2.30;99.90;;;;;;5054490;28;20478;-78
2021/12/18 09:30:08;;;;;;;0.30;0.30;;;2.40;99.90;;;;;;5054180;28;20817;-78
2021/12/18 09:32:36;;;;;;;0.43;0.43;;;2.30;99.90;;;;;;5054344;28;20465;-78
2021/12/18 09:35:02;;;;;;;1.23;0.50;;;2.40;99.90;;;;;;5054221;28;20488;-78
2021/12/18 09:37:29;;;;;;;0.30;0.30;;;2.40;99.90;;;;;;5054111;28;20964;-79
2021/12/18 09:39:56;;;;;;;0.30;0.30;;;2.40;99.90;;;;;;5054050;28;20979;-79
2021/12/18 09:42:23;;;;;;;0.33;0.30;;;2.40;99.90;;;;;;5054352;28;20478;-83
2021/12/18 09:44:52;;;;;;;0.30;0.30;;;2.40;99.90;;;;;;5054459;28;20449;-83
2021/12/18 09:47:20;;;;;;;0.30;0.20;;;2.40;99.90;;;;;;5054175;28;20485;-83
2021/12/18 09:49:47;;;;;;;0.30;0.30;;;2.50;99.90;;;;;;5054020;28;20466;-83
2021/12/18 09:52:14;;;;;;;0.30;0.30;;;2.50;99.90;;;;;;5053982;28;20469;-83
2021/12/18 09:54:41;;;;;;;0.30;0.30;;;2.50;99.90;;;;;;5054194;28;20434;-83
2021/12/18 09:57:08;;;;;;;0.30;0.20;;;2.60;99.90;;;;;;5054064;28;20446;-83
2021/12/18 09:59:36;;;;;;;0.60;0.30;;;2.70;99.90;;;;;;5054178;28;20441;-83
2021/12/18 10:02:04;;;;;;;0.30;0.30;;;2.70;99.90;;;;;;5053821;28;21079;-83
2021/12/18 10:04:33;;;;;;;0.30;0.30;;;2.60;99.90;;;;;;5054631;28;20454;-79
2021/12/18 10:07:03;;;;;;;0.30;0.30;;;2.60;99.90;;;;;;5053469;28;20936;-78
2021/12/18 10:09:33;;;;;;;0.30;0.30;;;2.70;99.90;;;;;;5053689;28;20484;-78
2021/12/18 10:12:02;;;;;;;0.30;0.30;;;2.70;99.90;;;;;;5053517;28;20476;-79
2021/12/18 10:14:37;;;;;;;0.30;0.30;;;2.80;99.90;;;;;;5053605;28;20461;-79
2021/12/18 10:17:17;;;;;;;0.30;0.30;;;2.80;99.90;;;;;;5053730;28;20448;-79
2021/12/18 10:19:44;;;;;;;0.30;0.30;;;2.80;99.90;;;;;;5053690;28;20448;-79
2021/12/18 10:22:13;;;;;;;0.60;0.60;;;2.80;99.90;;;;;;5053615;28;20481;-79
2021/12/18 10:24:41;;;;;;;0.43;0.43;;;2.60;99.90;;;;;;5053362;28;20449;-79
2021/12/18 10:27:18;;;;;;;0.47;0.47;;;2.70;99.90;;;;;;5053495;28;20961;-79
2021/12/18 10:29:45;;;;;;;0.50;0.50;;;2.70;99.90;;;;;;5053863;28;20771;-79
2021/12/18 10:32:15;;;;;;;0.30;0.30;;;2.70;99.90;;;;;;5053139;28;20980;-79
2021/12/18 10:34:44;;;;;;;0.30;0.20;;;2.60;99.90;;;;;;5052983;28;20434;-79
2021/12/18 10:37:17;;;;;;;0.30;0.30;;;2.60;99.90;;;;;;5053399;28;20434;-78
2021/12/18 10:39:57;;;;;;;0.30;0.20;;;2.70;99.90;;;;;;5060276;28;20515;-79
2021/12/18 10:42:27;;;;;;;0.30;0.30;;;2.70;99.90;;;;;;5071005;28;21049;-79
2021/12/18 10:45:07;;;;;;;1.80;1.70;;;2.70;99.90;;;;;;5072437;28;20851;-79
2021/12/18 10:47:50;;;;;;;1.27;0.50;;;2.80;99.90;;;;;;5073330;28;20464;-78
2021/12/18 10:50:26;;;;;;;1.00;1.00;;;2.80;99.90;;;;;;5070397;28;20448;-79
2021/12/18 10:52:55;;;;;;;0.30;0.30;;;2.80;99.90;;;;;;5070654;28;20454;-79
2021/12/18 10:55:28;;;;;;;0.37;0.27;;;2.90;99.90;;;;;;5072608;28;20813;-79
2021/12/18 10:57:55;;;;;;;0.40;0.40;;;2.90;99.90;;;;;;5072021;28;20437;-79
2021/12/18 11:00:35;;;;;;;0.40;0.40;;;2.80;99.90;;;;;;5072502;28;20457;-78
2021/12/18 11:03:26;;;;;;;0.40;0.40;;;2.80;99.90;;;;;;5072428;28;20433;-78
2021/12/18 11:06:14;;;;;;;1.00;1.00;;;2.80;99.90;;;;;;5072637;28;20456;-79
2021/12/18 11:09:05;;;;;;;0.70;0.70;;;2.80;99.90;;;;;;5072158;28;20465;-78
2021/12/18 11:14:25;;;;;;;1.90;0.83;;;2.90;99.90;;;;;;5072278;28;20412;-79
2021/12/18 11:16:54;;;;;;;0.30;0.30;;;3.10;99.90;;;;;;5072536;28;20444;-79
2021/12/18 11:19:25;;;;;;;0.60;0.50;;;3.10;99.90;;;;;;5072514;28;20444;-79
2021/12/18 11:21:54;;;;;;;0.73;0.73;;;3.10;99.90;;;;;;5071879;28;20464;-78
2021/12/18 11:24:23;;;;;;;0.97;0.97;;;3.20;99.90;;;;;;5072408;28;20463;-78
2021/12/18 11:26:58;;;;;;;0.80;0.80;;;3.20;99.90;;;;;;5072522;28;20436;-79
2021/12/18 11:29:34;;;;;;;0.67;0.40;;;3.20;99.90;;;;;;5072353;28;20460;-79
2021/12/18 11:32:01;;;;;;;0.40;0.40;;;3.20;99.90;;;;;;5071632;28;20525;-79
2021/12/18 11:34:29;;;;;;;1.27;0.60;;;3.20;99.90;;;;;;5072162;28;20459;-79
2021/12/18 11:36:59;;;;;;;0.60;0.40;;;3.20;99.90;;;;;;5072275;28;20433;-79
2021/12/18 11:39:30;;;;;;;0.40;0.30;;;3.30;99.90;;;;;;5072567;28;20445;-79
2021/12/18 11:41:58;;;;;;;0.50;0.50;;;3.30;99.90;;;;;;5071889;28;20472;-79
2021/12/18 11:44:30;;;;;;;0.93;0.50;;;3.40;99.90;;;;;;5072084;28;20456;-79
2021/12/18 11:46:57;;;;;;;0.30;0.20;;;3.40;99.90;;;;;;5072405;28;20448;-79
2021/12/18 11:49:26;;;;;;;0.30;0.30;;;3.40;99.90;;;;;;5072301;28;20484;-79
2021/12/18 11:52:02;;;;;;;0.30;0.30;;;3.50;99.90;;;;;;5072016;28;20469;-79
2021/12/18 11:54:50;;;;;;;0.57;0.57;;;3.40;99.90;;;;;;5071703;28;20429;-79
2021/12/18 11:57:43;;;;;;;0.30;0.20;;;3.40;99.90;;;;;;5075727;28;20460;-79
2021/12/18 12:00:35;;;;;;;0.30;0.20;;;3.40;99.90;;;;;;5075562;28;20444;-79
2021/12/18 12:03:02;;;;;;;0.40;0.40;;;3.20;99.90;;;;;;5075300;28;20437;-79
2021/12/18 12:05:35;;;;;;;0.50;0.50;;;3.30;99.90;;;;;;5075716;28;20452;-79
2021/12/18 12:08:42;;;;;;;0.73;0.73;;;3.30;99.90;;;;;;5075551;28;20484;-79
2021/12/18 12:11:20;;;;;;;12.03;0.77;;;3.50;99.90;;;;;;5065510;28;20602;-79
2021/12/18 12:14:06;;;;;;;0.30;0.20;;;3.40;99.90;;;;;;5075200;28;20456;-78
2021/12/18 12:17:21;;;;;;;0.90;0.90;;;3.50;99.90;;;;;;5075217;28;20448;-78
2021/12/18 12:19:54;;;;;;;0.70;0.70;;;3.50;99.90;;;;;;5075012;28;20453;-79
2021/12/18 12:22:42;;;;;;;0.30;0.30;;;3.50;99.90;;;;;;5075259;28;20469;-79
2021/12/18 12:25:14;;;;;;;0.30;0.30;;;3.40;99.90;;;;;;5074964;28;20429;-79
2021/12/18 12:27:43;;;;;;;0.30;0.30;;;3.40;99.90;;;;;;5075045;28;20420;-79
2021/12/18 12:30:13;;;;;;;0.30;0.30;;;3.40;99.90;;;;;;5075182;28;20526;-79
2021/12/18 12:32:54;;;;;;;0.40;0.40;;;3.40;99.90;;;;;;5075119;28;20457;-79
2021/12/18 12:35:21;;;;;;;0.30;0.30;;;3.50;99.90;;;;;;5074578;28;20547;-79
2021/12/18 12:37:49;;;;;;;0.30;0.30;;;3.50;99.90;;;;;;5075088;28;20444;-79
2021/12/18 12:40:20;;;;;;;0.60;0.60;;;3.50;99.90;;;;;;5074955;28;20456;-78
2021/12/18 12:43:12;;;;;;;0.30;0.30;;;3.60;99.90;;;;;;5074836;28;20460;-78
2021/12/18 12:45:41;;;;;;;0.60;0.60;;;3.60;99.90;;;;;;5074524;28;20460;-79
2021/12/18 12:48:09;;;;;;;0.30;0.30;;;3.50;99.90;;;;;;5074841;28;20472;-79
2021/12/18 12:50:37;;;;;;;3.40;0.70;;;3.50;99.90;;;;;;5074731;28;20441;-79
2021/12/18 12:53:05;;;;;;;1.23;0.63;;;3.50;99.90;;;;;;5074512;28;20421;-79
2021/12/18 12:55:40;;;;;;;0.30;0.30;;;3.60;99.90;;;;;;5074253;28;20780;-79
2021/12/18 12:58:17;;;;;;;0.30;0.30;;;3.60;99.90;;;;;;5074769;28;20428;-79
2021/12/18 13:00:52;;;;;;;0.60;0.40;;;3.60;99.90;;;;;;5074582;28;20413;-79
2021/12/18 13:03:25;;;;;;;0.30;0.30;;;3.60;99.90;;;;;;5074704;28;20437;-79
2021/12/18 13:06:03;;;;;;;1.07;0.80;;;3.50;99.90;;;;;;5073579;28;20440;-79
2021/12/18 13:08:32;;;;;;;0.30;0.30;;;3.50;99.90;;;;;;5075148;28;20804;-79
2021/12/18 13:11:01;;;;;;;0.40;0.40;;;3.50;99.90;;;;;;5074387;28;20473;-79
2021/12/18 13:13:30;;;;;;;0.40;0.40;;;3.60;99.90;;;;;;5074101;28;20469;-79
2021/12/18 13:16:02;;;;;;;0.30;0.30;;;3.60;99.90;;;;;;5073983;28;20460;-79
2021/12/18 13:18:31;;;;;;;0.70;0.50;;;3.60;99.90;;;;;;5074044;28;20452;-79
2021/12/18 13:21:00;;;;;;;0.30;0.20;;;3.60;99.90;;;;;;5074254;28;20544;-79
2021/12/18 13:23:51;;;;;;;0.40;0.40;;;3.70;99.90;;;;;;5073120;28;20939;-79
2021/12/18 13:26:23;;;;;;;0.30;0.30;;;3.50;99.90;;;;;;5073850;28;20429;-79
2021/12/18 13:28:57;;;;;;;0.40;0.40;;;3.40;99.90;;;;;;5074229;28;20878;-79
2021/12/18 13:31:26;;;;;;;0.30;0.20;;;3.30;99.90;;;;;;5074104;28;20480;-79
2021/12/18 13:34:00;;;;;;;1.20;0.60;;;3.40;99.90;;;;;;5073989;28;20425;-79
2021/12/18 13:36:47;;;;;;;0.30;0.30;;;3.50;99.90;;;;;;5073733;28;20477;-79
2021/12/18 13:39:16;;;;;;;0.30;0.30;;;3.50;99.90;;;;;;5074446;28;20417;-79
2021/12/18 13:42:04;;;;;;;0.40;0.30;;;3.50;99.90;;;;;;5073982;28;20464;-78
2021/12/18 13:44:57;;;;;;;0.30;0.30;;;3.50;99.90;;;;;;5074020;28;20931;-78
2021/12/18 13:47:27;;;;;;;0.30;0.20;;;3.50;99.90;;;;;;5059643;28;20483;-79